Time;durP1;ratioP1;P1;durP2;ratioP2;P2;SDS_P1;SDS_P2;PMS_P1;PMS_P2;Temp;Humidity;BMP_temperature;BMP_pressure;BME280_temperature;BME280_humidity;BME280_pressure;Samples;Min_cycle;Max_cycle;Signal;HPM_P1;HPM_P2
2023/01/22 00:00:25;;;;;;;15.20;12.60;;;-0.20;99.90;;;;;;5098466;28;20391;-70
2023/01/22 00:02:51;;;;;;;13.60;12.00;;;-0.10;99.90;;;;;;5113100;28;20376;-70
2023/01/22 00:05:16;;;;;;;14.53;11.53;;;-0.10;99.90;;;;;;5113156;28;20989;-70
2023/01/22 00:07:42;;;;;;;13.40;11.55;;;-0.10;99.90;;;;;;5092834;28;20409;-70
2023/01/22 00:10:09;;;;;;;13.63;12.20;;;-0.10;99.90;;;;;;5092748;28;20389;-70
2023/01/22 00:12:35;;;;;;;14.93;11.80;;;0.00;99.90;;;;;;5092312;28;20752;-70
2023/01/22 00:15:00;;;;;;;14.05;12.20;;;-0.10;99.90;;;;;;5092736;28;20382;-70
2023/01/22 00:17:26;;;;;;;13.88;11.75;;;0.00;99.90;;;;;;5095173;28;20401;-70
2023/01/22 00:19:51;;;;;;;13.02;10.90;;;-0.10;99.90;;;;;;5090779;28;20386;-70
2023/01/22 00:22:17;;;;;;;17.08;11.80;;;-0.20;99.90;;;;;;5092581;28;20379;-70
2023/01/22 00:24:43;;;;;;;13.48;11.55;;;-0.10;99.90;;;;;;5091078;28;20406;-69
2023/01/22 00:27:08;;;;;;;15.00;10.90;;;-0.10;99.90;;;;;;5092326;28;20389;-70
2023/01/22 00:29:33;;;;;;;13.37;11.17;;;-0.10;99.90;;;;;;5093570;28;20457;-70
2023/01/22 00:31:59;;;;;;;15.03;11.60;;;-0.10;99.90;;;;;;5112929;28;20439;-70
2023/01/22 00:34:25;;;;;;;12.20;10.90;;;-0.10;99.90;;;;;;5093580;28;20424;-70
2023/01/22 00:36:50;;;;;;;13.20;11.77;;;-0.10;99.90;;;;;;5074352;28;20481;-70
2023/01/22 00:39:16;;;;;;;13.80;11.80;;;-0.10;99.90;;;;;;5092481;28;20863;-69
2023/01/22 00:41:42;;;;;;;14.80;11.30;;;0.10;99.90;;;;;;5092941;28;20888;-70
2023/01/22 00:44:07;;;;;;;12.83;11.00;;;0.00;99.90;;;;;;5112097;28;20855;-69
2023/01/22 00:46:33;;;;;;;14.30;11.43;;;-0.10;99.90;;;;;;5112407;28;20487;-69
2023/01/22 00:48:59;;;;;;;12.77;10.40;;;-0.10;99.90;;;;;;5095236;28;20417;-69
2023/01/22 00:51:24;;;;;;;16.27;12.13;;;-0.10;99.90;;;;;;5074230;28;20448;-70
2023/01/22 00:53:50;;;;;;;13.30;11.60;;;-0.10;99.90;;;;;;5091457;28;20891;-70
2023/01/22 00:56:15;;;;;;;15.07;12.10;;;-0.20;99.90;;;;;;5073978;28;20463;-69
2023/01/22 00:58:41;;;;;;;13.40;11.20;;;-0.20;99.90;;;;;;5092034;28;20795;-70
2023/01/22 01:01:07;;;;;;;13.70;10.88;;;-0.10;99.90;;;;;;5092143;28;20393;-69
2023/01/22 01:03:35;;;;;;;13.13;10.80;;;-0.10;99.90;;;;;;5105788;28;20398;-70
2023/01/22 01:06:11;;;;;;;14.15;11.05;;;-0.20;99.90;;;;;;5097580;28;20408;-70
2023/01/22 01:08:38;;;;;;;13.85;11.32;;;-0.10;99.90;;;;;;5099256;28;20944;-70
2023/01/22 01:11:06;;;;;;;13.70;11.50;;;-0.10;99.90;;;;;;5091607;28;20397;-70
2023/01/22 01:13:38;;;;;;;12.90;10.82;;;-0.20;99.90;;;;;;5090939;28;20743;-70
2023/01/22 01:16:06;;;;;;;13.32;10.43;;;-0.10;99.90;;;;;;5091713;28;20389;-70
2023/01/22 01:18:34;;;;;;;13.05;10.70;;;0.00;99.90;;;;;;5091686;28;20396;-70
2023/01/22 01:21:00;;;;;;;12.45;10.40;;;-0.20;99.90;;;;;;5111606;28;20389;-70
2023/01/22 01:23:27;;;;;;;11.70;10.50;;;-0.30;99.90;;;;;;5111104;28;20396;-70
2023/01/22 01:25:52;;;;;;;12.45;10.77;;;-0.20;99.90;;;;;;5111656;28;20407;-70
2023/01/22 01:28:18;;;;;;;11.88;10.30;;;-0.20;99.90;;;;;;5111689;28;20380;-70
2023/01/22 01:30:44;;;;;;;12.20;10.90;;;-0.20;99.90;;;;;;5111703;28;20379;-70
2023/01/22 01:33:11;;;;;;;11.60;10.25;;;-0.20;99.90;;;;;;5090775;28;20935;-70
2023/01/22 01:35:36;;;;;;;13.02;10.40;;;-0.20;99.90;;;;;;5083452;28;20399;-70
2023/01/22 01:38:02;;;;;;;11.55;10.23;;;-0.30;99.90;;;;;;5077773;28;20742;-71
2023/01/22 01:40:28;;;;;;;12.68;10.48;;;-0.30;99.90;;;;;;5091231;28;20378;-70
2023/01/22 01:42:54;;;;;;;14.17;11.30;;;-0.30;99.90;;;;;;5090345;28;20386;-70
2023/01/22 01:45:26;;;;;;;13.65;11.30;;;-0.20;99.90;;;;;;5091042;28;20397;-70
2023/01/22 01:48:23;;;;;;;13.68;10.95;;;-0.20;99.90;;;;;;5091012;28;20946;-70
2023/01/22 01:51:01;;;;;;;13.50;11.30;;;-0.20;99.90;;;;;;5097345;28;20396;-70
2023/01/22 01:53:27;;;;;;;13.27;11.30;;;-0.10;99.90;;;;;;5110741;28;20403;-70
2023/01/22 01:55:55;;;;;;;13.57;11.07;;;-0.20;99.90;;;;;;5102824;28;20390;-70
2023/01/22 01:58:22;;;;;;;13.07;10.75;;;-0.10;99.90;;;;;;5090461;28;20753;-70
2023/01/22 02:00:56;;;;;;;13.38;11.05;;;-0.20;99.90;;;;;;5090780;28;20386;-70
2023/01/22 02:03:22;;;;;;;12.70;10.90;;;-0.10;99.90;;;;;;5089651;28;20406;-70
2023/01/22 02:05:48;;;;;;;12.80;11.13;;;-0.10;99.90;;;;;;5122790;22;20465;-73
2023/01/22 02:08:14;;;;;;;12.10;10.70;;;-0.20;99.90;;;;;;5110805;28;20758;-73
2023/01/22 02:10:39;;;;;;;12.93;11.25;;;-0.10;99.90;;;;;;5110965;28;20364;-73
2023/01/22 02:13:16;;;;;;;12.40;10.50;;;-0.10;99.90;;;;;;5110078;28;20385;-73
2023/01/22 02:15:42;;;;;;;13.10;10.75;;;0.00;99.90;;;;;;5098310;28;20791;-73
2023/01/22 02:18:07;;;;;;;13.40;10.37;;;-0.10;99.90;;;;;;5090674;28;20378;-73
2023/01/22 02:20:36;;;;;;;11.90;10.60;;;-0.20;99.90;;;;;;5090755;28;20468;-73
2023/01/22 02:23:01;;;;;;;11.88;10.02;;;-0.30;99.90;;;;;;5089981;28;20374;-73
2023/01/22 02:25:27;;;;;;;13.60;10.60;;;-0.30;99.90;;;;;;5080636;28;20470;-73
2023/01/22 02:27:52;;;;;;;13.00;10.97;;;-0.40;99.90;;;;;;5090539;28;20393;-73
2023/01/22 02:30:18;;;;;;;12.53;10.10;;;-0.30;99.90;;;;;;5090133;28;20428;-73
2023/01/22 02:32:43;;;;;;;11.50;10.30;;;-0.40;99.90;;;;;;5071342;28;20439;-73
2023/01/22 02:35:09;;;;;;;14.37;11.47;;;-0.40;99.90;;;;;;5090231;28;20405;-73
2023/01/22 02:37:34;;;;;;;14.07;11.80;;;-0.40;99.90;;;;;;5090298;28;20780;-73
2023/01/22 02:40:00;;;;;;;13.80;11.60;;;-0.30;99.90;;;;;;5090299;28;20397;-73
2023/01/22 02:42:26;;;;;;;14.00;11.65;;;-0.30;99.90;;;;;;5089812;28;20446;-73
2023/01/22 02:44:52;;;;;;;12.40;10.88;;;-0.20;99.90;;;;;;5089405;28;20447;-73
2023/01/22 02:47:18;;;;;;;13.15;11.23;;;-0.30;99.90;;;;;;5090373;28;20398;-73
2023/01/22 02:49:44;;;;;;;13.55;11.50;;;-0.20;99.90;;;;;;5090410;28;20382;-73
2023/01/22 02:52:09;;;;;;;12.93;10.57;;;-0.30;99.90;;;;;;5072522;28;20799;-73
2023/01/22 02:54:35;;;;;;;13.00;11.10;;;-0.20;99.90;;;;;;5089399;28;20427;-73
2023/01/22 02:57:00;;;;;;;12.90;10.70;;;-0.30;99.90;;;;;;5090530;28;20420;-73
2023/01/22 02:59:26;;;;;;;12.00;10.70;;;-0.30;99.90;;;;;;5071727;28;20394;-73
2023/01/22 03:01:51;;;;;;;12.00;10.10;;;-0.20;99.90;;;;;;5090267;28;20427;-73
2023/01/22 03:04:17;;;;;;;13.17;11.13;;;-0.30;99.90;;;;;;5089039;28;20488;-73
2023/01/22 03:06:44;;;;;;;11.90;10.00;;;-0.20;99.90;;;;;;5071833;28;20481;-73
2023/01/22 03:09:16;;;;;;;12.60;10.03;;;-0.10;99.90;;;;;;5088223;28;20454;-73
2023/01/22 03:11:43;;;;;;;12.00;9.63;;;-0.20;99.90;;;;;;5094178;28;20409;-74
2023/01/22 03:22:21;;;;;;;12.18;10.30;;;-0.20;99.90;;;;;;5078977;28;20443;-71
2023/01/22 03:24:51;;;;;;;11.63;9.63;;;-0.20;99.90;;;;;;5093558;28;20409;-72
2023/01/22 03:27:19;;;;;;;10.32;8.65;;;-0.10;99.90;;;;;;5093789;28;20477;-73
2023/01/22 03:29:45;;;;;;;11.55;9.10;;;-0.10;99.90;;;;;;5093681;28;20378;-73
2023/01/22 03:32:11;;;;;;;11.70;10.50;;;-0.10;99.90;;;;;;5075617;28;20396;-73
2023/01/22 03:34:37;;;;;;;11.95;9.75;;;-0.10;99.90;;;;;;5092804;28;20421;-72
2023/01/22 03:37:03;;;;;;;10.57;9.20;;;-0.10;99.90;;;;;;5088456;28;20440;-72
2023/01/22 03:39:30;;;;;;;10.23;8.52;;;0.00;99.90;;;;;;5093715;28;20779;-72
2023/01/22 03:41:56;;;;;;;10.30;8.88;;;-0.10;99.90;;;;;;5093628;28;20414;-73
2023/01/22 03:44:21;;;;;;;10.50;9.40;;;-0.10;99.90;;;;;;5092743;28;20907;-72
2023/01/22 03:46:47;;;;;;;10.43;9.35;;;0.00;99.90;;;;;;5093384;28;20430;-73
2023/01/22 03:49:13;;;;;;;11.68;9.80;;;0.00;99.90;;;;;;5093992;28;20620;-72
2023/01/22 03:51:39;;;;;;;10.80;9.70;;;0.00;99.90;;;;;;5093456;28;20394;-73
2023/01/22 03:54:05;;;;;;;10.05;8.60;;;0.00;99.90;;;;;;5093647;28;20382;-73
2023/01/22 03:56:31;;;;;;;11.50;9.30;;;-0.10;99.90;;;;;;5093935;28;20390;-72
2023/01/22 03:58:57;;;;;;;10.85;8.90;;;-0.10;99.90;;;;;;5093325;28;20393;-72
2023/01/22 04:01:24;;;;;;;10.43;8.65;;;-0.10;99.90;;;;;;5095100;28;20382;-73
2023/01/22 04:03:51;;;;;;;11.00;9.40;;;-0.10;99.90;;;;;;5093811;28;20456;-72
2023/01/22 04:06:18;;;;;;;12.68;10.30;;;-0.10;99.90;;;;;;5094572;28;20432;-73
2023/01/22 04:08:45;;;;;;;11.43;10.23;;;-0.20;99.90;;;;;;5094074;28;20388;-73
2023/01/22 04:11:12;;;;;;;13.50;11.05;;;-0.30;99.90;;;;;;5075766;28;20396;-73
2023/01/22 04:13:39;;;;;;;13.63;11.52;;;-0.20;99.90;;;;;;5092555;28;20385;-73
2023/01/22 04:16:05;;;;;;;16.02;12.60;;;-0.30;99.90;;;;;;5074995;28;20402;-73
2023/01/22 04:18:31;;;;;;;13.05;10.93;;;-0.20;99.90;;;;;;5092852;28;20444;-72
2023/01/22 04:20:57;;;;;;;14.63;12.20;;;-0.10;99.90;;;;;;5092351;28;20378;-72
2023/01/22 04:23:24;;;;;;;13.85;11.88;;;-0.10;99.90;;;;;;5074218;28;20412;-74
2023/01/22 04:25:49;;;;;;;15.65;12.15;;;-0.20;99.90;;;;;;5091853;28;20459;-72
2023/01/22 04:28:15;;;;;;;15.77;12.23;;;-0.10;99.90;;;;;;5092576;28;20756;-72
2023/01/22 04:30:43;;;;;;;16.23;12.85;;;-0.20;99.90;;;;;;5092002;28;20440;-72
2023/01/22 04:33:08;;;;;;;14.18;11.60;;;0.00;99.90;;;;;;5092086;28;20413;-72
2023/01/22 04:35:35;;;;;;;15.57;12.40;;;0.00;99.90;;;;;;5092533;28;20413;-73
2023/01/22 04:38:02;;;;;;;16.10;12.17;;;0.00;99.90;;;;;;5092823;28;20389;-73
2023/01/22 04:40:27;;;;;;;15.70;12.50;;;0.00;99.90;;;;;;5092685;28;20389;-73
2023/01/22 04:42:53;;;;;;;15.00;12.73;;;-0.20;99.90;;;;;;5091496;28;20394;-72
2023/01/22 04:45:19;;;;;;;15.80;12.70;;;-0.10;99.90;;;;;;5092546;28;20402;-72
2023/01/22 04:47:46;;;;;;;19.45;14.25;;;-0.30;99.90;;;;;;5074337;28;20761;-72
2023/01/22 04:50:17;;;;;;;16.60;13.03;;;-0.20;99.90;;;;;;5092546;28;20431;-72
2023/01/22 04:52:43;;;;;;;13.35;11.45;;;-0.10;99.90;;;;;;5091785;28;20443;-72
2023/01/22 04:55:09;;;;;;;16.48;12.38;;;-0.10;99.90;;;;;;5092066;28;20425;-72
2023/01/22 04:57:34;;;;;;;15.65;13.20;;;0.00;99.90;;;;;;5074190;28;20478;-72
2023/01/22 05:00:00;;;;;;;16.53;13.73;;;0.00;99.90;;;;;;5092513;28;20435;-73
2023/01/22 05:02:26;;;;;;;16.33;12.80;;;-0.10;99.90;;;;;;5091885;28;20393;-72
2023/01/22 05:04:51;;;;;;;16.07;12.27;;;-0.10;99.90;;;;;;5073537;28;20414;-72
2023/01/22 05:07:17;;;;;;;15.40;12.45;;;-0.20;99.90;;;;;;5092145;28;20409;-72
2023/01/22 05:09:42;;;;;;;17.30;13.07;;;-0.30;99.90;;;;;;5091565;28;20883;-72
2023/01/22 05:12:08;;;;;;;13.75;12.13;;;-0.30;99.90;;;;;;5092119;28;20943;-72
2023/01/22 05:14:33;;;;;;;16.25;12.70;;;-0.30;99.90;;;;;;5091310;28;20431;-72
2023/01/22 05:16:59;;;;;;;17.35;13.82;;;-0.20;99.90;;;;;;5092062;28;20382;-72
2023/01/22 05:19:24;;;;;;;15.23;12.70;;;-0.30;99.90;;;;;;5092113;28;20471;-72
2023/01/22 05:21:50;;;;;;;17.15;13.75;;;-0.20;99.90;;;;;;5091269;28;20932;-72
2023/01/22 05:24:17;;;;;;;17.60;13.93;;;-0.30;99.90;;;;;;5090940;28;20484;-72
2023/01/22 05:26:43;;;;;;;17.42;13.73;;;-0.20;99.90;;;;;;5091039;28;20410;-72
2023/01/22 05:29:08;;;;;;;16.70;13.53;;;-0.20;99.90;;;;;;5091844;28;20375;-72
2023/01/22 05:31:34;;;;;;;17.40;13.70;;;-0.30;99.90;;;;;;5090874;28;20477;-73
2023/01/22 05:33:59;;;;;;;16.80;13.03;;;-0.40;99.90;;;;;;5091045;28;20884;-72
2023/01/22 05:36:25;;;;;;;17.40;13.67;;;-0.20;99.90;;;;;;5076964;28;20403;-72
2023/01/22 05:38:50;;;;;;;14.60;12.70;;;-0.10;99.90;;;;;;5088951;28;20390;-73
2023/01/22 05:41:16;;;;;;;15.57;13.20;;;-0.10;99.90;;;;;;5091046;28;20394;-73
2023/01/22 05:43:41;;;;;;;16.93;13.97;;;-0.10;99.90;;;;;;5089959;28;20469;-72
2023/01/22 05:46:07;;;;;;;16.30;13.17;;;0.00;99.90;;;;;;5091233;28;20493;-73
2023/01/22 05:48:32;;;;;;;16.30;13.20;;;0.00;99.90;;;;;;5091536;28;20389;-74
2023/01/22 05:51:05;;;;;;;16.67;12.50;;;-0.10;99.90;;;;;;5091565;28;20374;-72
2023/01/22 05:53:34;;;;;;;15.48;11.40;;;-0.20;99.90;;;;;;5090438;28;20382;-72
2023/01/22 05:56:04;;;;;;;14.80;11.35;;;-0.20;99.90;;;;;;5091144;28;20374;-72
2023/01/22 05:58:30;;;;;;;13.33;11.90;;;-0.20;99.90;;;;;;5070931;28;20390;-71
2023/01/22 06:00:56;;;;;;;13.43;12.00;;;-0.10;99.90;;;;;;5086590;28;20752;-72
2023/01/22 06:03:22;;;;;;;15.45;12.95;;;0.00;99.90;;;;;;5090343;28;20853;-73
2023/01/22 06:06:06;;;;;;;15.90;12.00;;;0.10;99.90;;;;;;5090856;28;20485;-72
2023/01/22 06:08:32;;;;;;;13.65;11.57;;;0.00;99.90;;;;;;5091058;28;20389;-73
2023/01/22 06:11:03;;;;;;;14.10;12.50;;;-0.10;99.90;;;;;;5091081;28;20375;-72
2023/01/22 06:13:30;;;;;;;13.65;11.38;;;-0.10;99.90;;;;;;5089971;28;20425;-72
2023/01/22 06:15:55;;;;;;;14.10;11.63;;;-0.20;99.90;;;;;;5090610;28;20480;-72
2023/01/22 06:18:22;;;;;;;16.38;13.10;;;-0.30;99.90;;;;;;5090944;28;20520;-72
2023/01/22 06:20:48;;;;;;;15.27;12.10;;;-0.10;99.90;;;;;;5090802;28;20772;-73
2023/01/22 06:23:14;;;;;;;14.45;11.50;;;-0.20;99.90;;;;;;5090705;28;20386;-73
2023/01/22 06:25:40;;;;;;;14.95;12.73;;;-0.20;99.90;;;;;;5086031;28;20414;-72
2023/01/22 06:28:05;;;;;;;16.97;13.10;;;-0.30;99.90;;;;;;5068686;28;20406;-72
2023/01/22 06:30:31;;;;;;;19.10;12.67;;;-0.20;99.90;;;;;;5090603;28;20420;-72
2023/01/22 06:32:57;;;;;;;15.37;11.97;;;-0.10;99.90;;;;;;5089894;28;20374;-72
2023/01/22 06:35:22;;;;;;;15.10;12.83;;;0.00;99.90;;;;;;5090546;28;20382;-72
2023/01/22 06:37:48;;;;;;;14.38;12.48;;;0.00;99.90;;;;;;5090657;28;20754;-73
2023/01/22 06:40:14;;;;;;;15.85;12.20;;;-0.10;99.90;;;;;;5090390;28;20382;-72
2023/01/22 06:42:40;;;;;;;14.55;12.25;;;0.00;99.90;;;;;;5071029;28;20394;-73
2023/01/22 06:45:06;;;;;;;15.57;12.53;;;0.00;99.90;;;;;;5090276;28;20930;-73
2023/01/22 06:47:32;;;;;;;18.45;13.10;;;0.00;99.90;;;;;;5090168;28;20887;-73
2023/01/22 06:49:57;;;;;;;15.35;12.50;;;-0.20;99.90;;;;;;5090447;28;20385;-73
2023/01/22 06:52:23;;;;;;;15.25;12.75;;;-0.10;99.90;;;;;;5090309;28;20750;-73
2023/01/22 06:54:49;;;;;;;14.65;11.45;;;0.00;99.90;;;;;;5090162;28;20382;-73
2023/01/22 06:57:15;;;;;;;15.40;11.73;;;0.10;99.90;;;;;;5090365;28;20378;-73
2023/01/22 06:59:40;;;;;;;13.83;12.00;;;-0.10;99.90;;;;;;5090341;28;20768;-73
2023/01/22 07:02:06;;;;;;;15.40;12.77;;;-0.10;99.90;;;;;;5090451;28;20384;-72
2023/01/22 07:04:31;;;;;;;16.27;13.00;;;-0.20;99.90;;;;;;5088862;28;20768;-73
2023/01/22 07:06:57;;;;;;;15.47;12.20;;;0.00;99.90;;;;;;5090249;28;20402;-73
2023/01/22 07:09:22;;;;;;;14.47;11.97;;;0.00;99.90;;;;;;5090036;28;20794;-73
2023/01/22 07:11:48;;;;;;;14.97;11.97;;;0.00;99.90;;;;;;5090212;28;20382;-72
2023/01/22 07:14:13;;;;;;;16.65;12.80;;;0.10;99.90;;;;;;5089141;28;20374;-73
2023/01/22 07:16:39;;;;;;;15.13;11.98;;;0.10;99.90;;;;;;5089833;28;20398;-73
2023/01/22 07:19:05;;;;;;;16.80;12.55;;;0.10;99.90;;;;;;5090053;28;20385;-73
2023/01/22 07:21:30;;;;;;;15.68;12.13;;;0.10;99.90;;;;;;5090394;28;20390;-73
2023/01/22 07:23:56;;;;;;;15.25;11.80;;;0.10;99.90;;;;;;5089443;28;20382;-74
2023/01/22 07:26:21;;;;;;;13.27;11.87;;;0.10;99.90;;;;;;5090169;28;20402;-73
2023/01/22 07:28:47;;;;;;;15.10;12.60;;;0.20;99.90;;;;;;5090045;28;20760;-73
2023/01/22 07:31:13;;;;;;;14.80;12.50;;;0.20;99.90;;;;;;5072099;28;20402;-73
2023/01/22 07:33:38;;;;;;;15.27;12.23;;;0.20;99.90;;;;;;5087818;28;20786;-73
2023/01/22 07:36:04;;;;;;;14.40;12.17;;;0.10;99.90;;;;;;5078615;28;20386;-73
2023/01/22 07:38:30;;;;;;;15.10;12.30;;;0.20;99.90;;;;;;5079987;28;20901;-73
2023/01/22 07:41:00;;;;;;;15.50;11.73;;;0.20;99.90;;;;;;5078383;28;20380;-73
2023/01/22 07:43:26;;;;;;;15.68;12.27;;;0.10;99.90;;;;;;5079134;28;20393;-73
2023/01/22 07:45:52;;;;;;;14.30;12.30;;;0.20;99.90;;;;;;5082584;28;20406;-73
2023/01/22 07:48:18;;;;;;;15.65;12.95;;;0.10;99.90;;;;;;5078235;28;20388;-73
2023/01/22 07:50:43;;;;;;;14.52;12.05;;;0.20;99.90;;;;;;5067937;28;20925;-72
2023/01/22 07:53:10;;;;;;;14.73;12.10;;;0.10;99.90;;;;;;5086614;28;20393;-71
2023/01/22 07:55:36;;;;;;;13.77;12.30;;;0.10;99.90;;;;;;5073367;28;20390;-72
2023/01/22 07:58:05;;;;;;;14.47;12.50;;;0.20;99.90;;;;;;5094341;28;20427;-73
2023/01/22 08:00:33;;;;;;;13.82;12.23;;;0.30;99.90;;;;;;5093616;28;20465;-73
2023/01/22 08:02:59;;;;;;;15.50;12.53;;;0.20;99.90;;;;;;5074301;28;20420;-73
2023/01/22 08:05:25;;;;;;;15.00;12.10;;;0.10;99.90;;;;;;5093586;28;20406;-74
2023/01/22 08:08:04;;;;;;;15.80;13.07;;;-0.10;99.90;;;;;;5094503;28;20490;-73
2023/01/22 08:10:29;;;;;;;14.25;11.85;;;0.10;99.90;;;;;;5093535;28;20392;-72
2023/01/22 08:12:58;;;;;;;14.43;11.88;;;0.10;99.90;;;;;;5092653;28;20390;-72
2023/01/22 08:15:23;;;;;;;14.47;11.50;;;0.10;99.90;;;;;;5074445;28;20427;-72
2023/01/22 08:17:52;;;;;;;14.23;11.53;;;0.20;99.90;;;;;;5074960;28;20378;-73
2023/01/22 08:20:18;;;;;;;14.18;12.68;;;0.30;99.90;;;;;;5093147;28;20381;-73
2023/01/22 08:22:46;;;;;;;13.53;11.30;;;0.50;99.90;;;;;;5092726;28;20378;-72
2023/01/22 08:25:12;;;;;;;14.95;12.30;;;0.40;99.90;;;;;;5091970;28;20435;-72
2023/01/22 08:27:40;;;;;;;13.10;11.50;;;0.20;99.90;;;;;;5085227;28;20389;-73
2023/01/22 08:30:07;;;;;;;12.65;11.13;;;0.40;99.90;;;;;;5092930;28;20397;-73
2023/01/22 08:32:33;;;;;;;12.65;11.35;;;0.50;99.90;;;;;;5092320;28;20412;-74
2023/01/22 08:34:58;;;;;;;13.17;11.60;;;0.60;99.90;;;;;;5093152;28;20402;-73
2023/01/22 08:37:24;;;;;;;12.33;10.70;;;0.50;99.90;;;;;;5093298;28;20430;-73
2023/01/22 08:39:50;;;;;;;13.60;12.13;;;0.60;99.90;;;;;;5092487;28;20401;-73
2023/01/22 08:42:16;;;;;;;12.98;11.27;;;0.80;99.90;;;;;;5074586;28;20729;-73
2023/01/22 08:44:41;;;;;;;13.50;11.85;;;1.00;99.90;;;;;;5091628;28;20404;-73
2023/01/22 08:47:09;;;;;;;13.97;11.00;;;1.00;99.90;;;;;;5092857;28;20382;-73
2023/01/22 08:49:34;;;;;;;14.80;12.87;;;1.10;99.90;;;;;;5084544;28;20377;-73
2023/01/22 08:52:21;;;;;;;13.80;11.90;;;0.90;99.90;;;;;;5092499;28;20396;-73
2023/01/22 08:54:47;;;;;;;13.25;11.43;;;1.00;99.90;;;;;;5073538;28;20970;-72
2023/01/22 08:57:13;;;;;;;13.35;11.45;;;1.10;99.90;;;;;;5074364;28;20402;-73
2023/01/22 08:59:38;;;;;;;12.50;11.20;;;1.10;99.90;;;;;;5092228;28;20460;-71
2023/01/22 09:02:04;;;;;;;12.80;10.80;;;1.10;99.90;;;;;;5092401;28;20876;-73
2023/01/22 09:04:30;;;;;;;13.43;12.05;;;1.00;99.90;;;;;;5091383;28;20790;-73
2023/01/22 09:06:55;;;;;;;13.73;11.52;;;0.90;99.90;;;;;;5092246;28;20398;-73
2023/01/22 09:09:21;;;;;;;13.25;11.75;;;0.60;99.90;;;;;;5092133;28;20883;-73
2023/01/22 09:11:47;;;;;;;13.70;12.13;;;0.70;99.90;;;;;;5091800;28;20390;-73
2023/01/22 09:14:13;;;;;;;13.85;11.95;;;0.90;99.90;;;;;;5090631;28;20809;-72
2023/01/22 09:16:38;;;;;;;14.15;12.00;;;0.80;99.90;;;;;;5092210;28;20933;-73
2023/01/22 09:19:05;;;;;;;15.67;12.07;;;0.60;99.90;;;;;;5091987;28;20381;-73
2023/01/22 09:21:36;;;;;;;15.45;12.93;;;0.60;99.90;;;;;;5091951;28;20389;-73
2023/01/22 09:24:02;;;;;;;14.52;11.73;;;0.70;99.90;;;;;;5091107;28;20392;-73
2023/01/22 09:26:28;;;;;;;15.15;12.90;;;0.80;99.90;;;;;;5091308;28;20917;-73
2023/01/22 09:28:53;;;;;;;14.37;12.43;;;0.80;99.90;;;;;;5091576;28;20394;-73
2023/01/22 09:31:19;;;;;;;13.97;12.37;;;0.80;99.90;;;;;;5092014;28;20781;-73
2023/01/22 09:33:49;;;;;;;17.10;13.38;;;1.00;99.90;;;;;;5091029;28;20427;-73
2023/01/22 09:36:15;;;;;;;16.40;12.20;;;1.00;99.90;;;;;;5078373;28;20452;-73
2023/01/22 09:38:41;;;;;;;13.33;11.20;;;1.10;99.90;;;;;;5071317;28;20399;-74
2023/01/22 09:41:16;;;;;;;13.30;11.85;;;1.20;99.90;;;;;;5086388;28;20397;-73
2023/01/22 09:44:02;;;;;;;13.38;10.38;;;1.00;99.90;;;;;;5090907;28;20390;-73
2023/01/22 09:46:40;;;;;;;13.07;10.75;;;1.10;99.90;;;;;;5091380;28;20397;-74
2023/01/22 09:49:14;;;;;;;12.65;10.82;;;1.20;99.90;;;;;;5091442;28;20435;-75
2023/01/22 09:51:39;;;;;;;11.32;10.02;;;1.40;99.90;;;;;;5088515;28;20796;-75
2023/01/22 09:54:07;;;;;;;12.45;10.60;;;1.50;99.90;;;;;;5090601;28;20382;-74
2023/01/22 09:56:45;;;;;;;11.10;9.88;;;1.40;99.90;;;;;;5053071;28;20392;-74
2023/01/22 09:59:18;;;;;;;10.90;9.80;;;1.20;99.90;;;;;;5071011;28;20761;-73
2023/01/22 10:02:36;;;;;;;11.10;10.00;;;1.60;99.90;;;;;;5070887;28;20375;-74
2023/01/22 10:05:39;;;;;;;12.32;10.10;;;1.60;99.90;;;;;;5035639;28;20422;-72
2023/01/22 10:08:15;;;;;;;11.60;10.20;;;1.80;99.90;;;;;;5063744;28;20496;-73
2023/01/22 10:10:40;;;;;;;11.70;10.18;;;1.80;99.90;;;;;;5090895;28;20390;-73
2023/01/22 10:13:24;;;;;;;10.60;9.47;;;1.70;99.90;;;;;;5090264;28;20464;-73
2023/01/22 10:15:52;;;;;;;12.07;10.82;;;1.60;99.90;;;;;;5072781;28;20400;-74
2023/01/22 10:18:29;;;;;;;11.65;10.15;;;1.80;99.90;;;;;;5090350;28;20382;-73
2023/01/22 10:20:56;;;;;;;11.40;10.20;;;2.00;99.90;;;;;;5090568;28;20456;-73
2023/01/22 10:23:24;;;;;;;10.90;9.75;;;1.90;99.90;;;;;;5069799;28;20414;-73
2023/01/22 10:26:13;;;;;;;11.40;10.18;;;1.90;99.90;;;;;;5070666;28;20399;-73
2023/01/22 10:28:46;;;;;;;11.75;9.60;;;2.00;99.90;;;;;;5052092;28;20837;-73
2023/01/22 10:31:45;;;;;;;12.43;10.57;;;2.00;99.90;;;;;;5071312;28;20805;-73
2023/01/22 10:34:34;;;;;;;11.68;9.70;;;2.00;99.90;;;;;;5059018;28;20403;-73
2023/01/22 10:37:13;;;;;;;11.10;10.00;;;2.00;99.90;;;;;;5089564;28;20378;-74
2023/01/22 10:39:41;;;;;;;11.32;9.40;;;2.10;99.90;;;;;;5090609;28;20868;-73
2023/01/22 10:42:14;;;;;;;10.45;9.10;;;2.20;99.90;;;;;;5089943;28;20779;-73
2023/01/22 10:44:39;;;;;;;11.30;9.90;;;2.20;99.90;;;;;;5071126;28;20398;-73
2023/01/22 10:47:19;;;;;;;11.20;10.00;;;1.90;99.90;;;;;;5090403;28;20443;-73
2023/01/22 10:49:45;;;;;;;11.27;9.93;;;2.10;99.90;;;;;;5058247;28;20384;-73
2023/01/22 10:52:26;;;;;;;10.70;9.60;;;2.20;99.90;;;;;;5052367;28;20391;-73
2023/01/22 10:54:56;;;;;;;10.10;9.10;;;2.20;99.90;;;;;;5085435;28;20413;-74
2023/01/22 10:57:35;;;;;;;9.75;8.27;;;2.40;99.90;;;;;;5072480;28;20378;-73
2023/01/22 11:00:05;;;;;;;11.15;9.40;;;2.30;99.90;;;;;;5082095;28;20380;-74
2023/01/22 11:02:33;;;;;;;9.82;8.82;;;2.50;99.90;;;;;;5080946;28;20394;-73
2023/01/22 11:05:20;;;;;;;10.10;8.50;;;2.30;99.90;;;;;;5079171;28;20911;-73
2023/01/22 11:07:50;;;;;;;10.13;9.02;;;2.10;99.90;;;;;;5062757;28;20477;-73
2023/01/22 11:10:24;;;;;;;11.00;9.90;;;2.10;99.90;;;;;;5079232;28;20392;-73
2023/01/22 11:12:53;;;;;;;10.60;8.82;;;2.10;99.90;;;;;;5078005;28;20400;-74
2023/01/22 11:15:40;;;;;;;10.95;9.85;;;2.00;99.90;;;;;;5081962;28;20483;-74
2023/01/22 11:18:06;;;;;;;9.60;8.60;;;2.00;99.90;;;;;;5065250;28;20490;-73
2023/01/22 11:20:44;;;;;;;10.27;9.18;;;2.00;99.90;;;;;;5084826;28;20401;-73
2023/01/22 11:23:09;;;;;;;10.30;9.10;;;2.00;99.90;;;;;;5080995;28;20427;-72
2023/01/22 11:25:46;;;;;;;9.97;8.70;;;1.90;99.90;;;;;;5080569;28;20886;-73
2023/01/22 11:28:30;;;;;;;10.48;9.38;;;2.00;99.90;;;;;;5077926;28;20383;-73
2023/01/22 11:31:10;;;;;;;9.98;8.95;;;2.00;99.90;;;;;;5080745;28;20388;-74
2023/01/22 11:33:57;;;;;;;10.33;9.33;;;2.10;99.90;;;;;;5075343;28;20524;-73
2023/01/22 11:36:32;;;;;;;10.90;9.53;;;2.00;99.90;;;;;;5079904;28;20396;-75
2023/01/22 11:39:48;;;;;;;9.90;8.90;;;2.20;99.90;;;;;;5074110;28;20484;-74
2023/01/22 11:42:29;;;;;;;10.02;8.88;;;2.00;99.90;;;;;;5034471;28;20393;-74
2023/01/22 11:45:13;;;;;;;15.68;10.35;;;1.90;99.90;;;;;;5074903;28;20401;-74
2023/01/22 11:47:54;;;;;;;12.18;9.65;;;2.10;99.90;;;;;;5086501;28;20744;-74
2023/01/22 11:50:45;;;;;;;9.50;8.30;;;2.00;99.90;;;;;;5094398;28;20385;-74
2023/01/22 11:53:13;;;;;;;10.30;9.20;;;2.00;99.90;;;;;;5093384;28;20370;-74
2023/01/22 11:55:50;;;;;;;10.50;8.95;;;1.90;99.90;;;;;;5093513;28;20393;-74
2023/01/22 11:58:31;;;;;;;10.85;8.77;;;2.00;99.90;;;;;;5093787;28;20439;-75
2023/01/22 12:01:26;;;;;;;11.38;9.88;;;2.00;99.90;;;;;;5093089;28;20386;-74
2023/01/22 12:04:32;;;;;;;8.70;7.75;;;2.10;99.90;;;;;;5092118;28;20473;-74
2023/01/22 12:07:29;;;;;;;9.00;8.10;;;2.10;99.90;;;;;;5088934;28;20484;-74
2023/01/22 12:10:29;;;;;;;8.65;7.72;;;2.10;99.90;;;;;;5093556;28;20374;-74
2023/01/22 12:13:01;;;;;;;9.68;8.18;;;2.10;99.90;;;;;;5091849;28;20386;-74
2023/01/22 12:15:39;;;;;;;10.70;8.37;;;2.10;99.90;;;;;;5093037;28;20405;-74
2023/01/22 12:18:36;;;;;;;8.70;7.40;;;2.20;99.90;;;;;;5075040;28;20382;-74
2023/01/22 12:21:05;;;;;;;9.40;8.20;;;2.10;99.90;;;;;;5092950;28;20887;-70
2023/01/22 12:23:38;;;;;;;8.93;8.00;;;1.90;99.90;;;;;;5092269;28;20918;-71
2023/01/22 12:26:13;;;;;;;10.43;8.88;;;2.00;99.90;;;;;;5088893;28;20449;-71
2023/01/22 12:29:00;;;;;;;8.95;8.05;;;2.00;99.90;;;;;;5092894;28;20418;-70
2023/01/22 12:31:36;;;;;;;9.43;7.85;;;2.00;99.90;;;;;;5077420;28;20379;-69
2023/01/22 12:34:08;;;;;;;10.27;8.20;;;1.90;99.90;;;;;;5092195;28;20403;-69
2023/01/22 12:36:35;;;;;;;8.77;7.97;;;1.90;99.90;;;;;;5083646;28;20416;-71
2023/01/22 12:39:11;;;;;;;8.85;7.53;;;2.10;99.90;;;;;;5092914;28;20382;-71
2023/01/22 12:41:51;;;;;;;9.02;8.05;;;2.10;99.90;;;;;;5092224;28;21045;-71
2023/01/22 12:44:45;;;;;;;9.70;8.70;;;2.00;99.90;;;;;;5090025;28;20448;-71
2023/01/22 12:47:35;;;;;;;9.98;8.80;;;2.20;99.90;;;;;;5092445;28;20427;-71
2023/01/22 12:50:00;;;;;;;10.52;9.43;;;2.30;99.90;;;;;;5092688;28;20432;-73
2023/01/22 12:52:35;;;;;;;9.77;8.77;;;2.30;99.90;;;;;;5092172;28;20378;-70
2023/01/22 12:55:03;;;;;;;9.73;8.73;;;2.20;99.90;;;;;;5074333;28;20872;-71